sensor_id;sensor_type;location;lat;lon;timestamp;temperature;humidity
37896;DHT22;23733;53.254;10.430;2023-04-06T00:01:40;4.60;99.90
37896;DHT22;23733;53.254;10.430;2023-04-06T00:04:06;4.60;99.90
37896;DHT22;23733;53.254;10.430;2023-04-06T00:06:33;4.60;99.90
37896;DHT22;23733;53.254;10.430;2023-04-06T00:09:00;4.60;99.90
37896;DHT22;23733;53.254;10.430;2023-04-06T00:11:26;4.50;99.90
37896;DHT22;23733;53.254;10.430;2023-04-06T00:13:52;4.40;99.90
37896;DHT22;23733;53.254;10.430;2023-04-06T00:16:19;4.40;99.90
37896;DHT22;23733;53.254;10.430;2023-04-06T00:18:45;4.40;99.90
37896;DHT22;23733;53.254;10.430;2023-04-06T00:21:12;4.40;99.90
37896;DHT22;23733;53.254;10.430;2023-04-06T00:23:41;4.30;99.90
37896;DHT22;23733;53.254;10.430;2023-04-06T00:26:08;4.30;99.90
37896;DHT22;23733;53.254;10.430;2023-04-06T00:28:34;4.30;99.90
37896;DHT22;23733;53.254;10.430;2023-04-06T00:31:00;4.40;99.90
37896;DHT22;23733;53.254;10.430;2023-04-06T00:33:26;4.40;99.90
37896;DHT22;23733;53.254;10.430;2023-04-06T00:35:52;4.40;99.90
37896;DHT22;23733;53.254;10.430;2023-04-06T00:38:18;4.40;99.90
37896;DHT22;23733;53.254;10.430;2023-04-06T00:40:45;4.30;99.90
37896;DHT22;23733;53.254;10.430;2023-04-06T00:43:11;4.20;99.90
37896;DHT22;23733;53.254;10.430;2023-04-06T00:45:41;4.10;99.90
37896;DHT22;23733;53.254;10.430;2023-04-06T00:48:08;4.10;99.90
37896;DHT22;23733;53.254;10.430;2023-04-06T00:50:34;4.00;99.90
37896;DHT22;23733;53.254;10.430;2023-04-06T00:53:01;3.90;99.90
37896;DHT22;23733;53.254;10.430;2023-04-06T00:55:27;3.90;99.90
37896;DHT22;23733;53.254;10.430;2023-04-06T00:57:54;3.90;99.90
37896;DHT22;23733;53.254;10.430;2023-04-06T01:00:20;3.90;99.90
37896;DHT22;23733;53.254;10.430;2023-04-06T01:02:46;3.90;99.90
37896;DHT22;23733;53.254;10.430;2023-04-06T01:05:13;3.90;99.90
37896;DHT22;23733;53.254;10.430;2023-04-06T01:07:39;3.80;99.90
37896;DHT22;23733;53.254;10.430;2023-04-06T01:10:06;3.80;99.90
37896;DHT22;23733;53.254;10.430;2023-04-06T01:12:32;3.80;99.90
37896;DHT22;23733;53.254;10.430;2023-04-06T01:14:58;3.70;99.90
37896;DHT22;23733;53.254;10.430;2023-04-06T01:17:24;3.60;99.90
37896;DHT22;23733;53.254;10.430;2023-04-06T01:19:51;3.60;99.90
37896;DHT22;23733;53.254;10.430;2023-04-06T01:22:19;3.60;99.90
37896;DHT22;23733;53.254;10.430;2023-04-06T01:24:46;3.60;99.90
37896;DHT22;23733;53.254;10.430;2023-04-06T01:27:13;3.60;99.90
37896;DHT22;23733;53.254;10.430;2023-04-06T01:29:39;3.50;99.90
37896;DHT22;23733;53.254;10.430;2023-04-06T01:32:08;3.60;99.90
37896;DHT22;23733;53.254;10.430;2023-04-06T01:34:34;3.50;99.90
37896;DHT22;23733;53.254;10.430;2023-04-06T01:37:00;3.50;99.90
37896;DHT22;23733;53.254;10.430;2023-04-06T01:39:26;3.50;99.90
37896;DHT22;23733;53.254;10.430;2023-04-06T01:41:52;3.40;99.90
37896;DHT22;23733;53.254;10.430;2023-04-06T01:46:45;3.40;99.90
37896;DHT22;23733;53.254;10.430;2023-04-06T01:49:12;3.20;99.90
37896;DHT22;23733;53.254;10.430;2023-04-06T01:51:38;3.20;99.90
37896;DHT22;23733;53.254;10.430;2023-04-06T01:54:04;3.20;99.90
37896;DHT22;23733;53.254;10.430;2023-04-06T01:56:30;3.20;99.90
37896;DHT22;23733;53.254;10.430;2023-04-06T01:58:56;3.20;99.90
37896;DHT22;23733;53.254;10.430;2023-04-06T02:01:22;3.10;99.90
37896;DHT22;23733;53.254;10.430;2023-04-06T02:03:48;3.00;99.90
37896;DHT22;23733;53.254;10.430;2023-04-06T02:06:14;3.00;99.90
37896;DHT22;23733;53.254;10.430;2023-04-06T02:08:40;3.10;99.90
37896;DHT22;23733;53.254;10.430;2023-04-06T02:11:06;3.00;99.90
37896;DHT22;23733;53.254;10.430;2023-04-06T02:13:33;3.00;99.90
37896;DHT22;23733;53.254;10.430;2023-04-06T02:15:59;3.00;99.90
37896;DHT22;23733;53.254;10.430;2023-04-06T02:18:25;3.00;99.90
37896;DHT22;23733;53.254;10.430;2023-04-06T02:20:51;3.00;99.90
37896;DHT22;23733;53.254;10.430;2023-04-06T02:23:17;2.90;99.90
37896;DHT22;23733;53.254;10.430;2023-04-06T02:25:43;3.00;99.90
37896;DHT22;23733;53.254;10.430;2023-04-06T02:28:09;3.00;99.90
37896;DHT22;23733;53.254;10.430;2023-04-06T02:30:35;2.90;99.90
37896;DHT22;23733;53.254;10.430;2023-04-06T02:33:01;2.90;99.90
37896;DHT22;23733;53.254;10.430;2023-04-06T02:35:31;2.90;99.90
37896;DHT22;23733;53.254;10.430;2023-04-06T02:37:57;2.90;99.90
37896;DHT22;23733;53.254;10.430;2023-04-06T02:40:23;2.80;99.90
37896;DHT22;23733;53.254;10.430;2023-04-06T02:42:49;2.80;99.90
37896;DHT22;23733;53.254;10.430;2023-04-06T02:45:15;2.70;99.90
37896;DHT22;23733;53.254;10.430;2023-04-06T02:47:42;2.80;99.90
37896;DHT22;23733;53.254;10.430;2023-04-06T02:50:08;2.80;99.90
37896;DHT22;23733;53.254;10.430;2023-04-06T02:52:34;2.80;99.90
37896;DHT22;23733;53.254;10.430;2023-04-06T02:55:00;2.80;99.90
37896;DHT22;23733;53.254;10.430;2023-04-06T02:57:26;2.70;99.90
37896;DHT22;23733;53.254;10.430;2023-04-06T02:59:52;2.70;99.90
37896;DHT22;23733;53.254;10.430;2023-04-06T03:02:18;2.70;99.90
37896;DHT22;23733;53.254;10.430;2023-04-06T03:04:44;2.60;99.90
37896;DHT22;23733;53.254;10.430;2023-04-06T03:07:11;2.60;99.90
37896;DHT22;23733;53.254;10.430;2023-04-06T03:09:37;2.70;99.90
37896;DHT22;23733;53.254;10.430;2023-04-06T03:12:04;2.70;99.90
37896;DHT22;23733;53.254;10.430;2023-04-06T03:14:30;2.70;99.90
37896;DHT22;23733;53.254;10.430;2023-04-06T03:16:56;2.60;99.90
37896;DHT22;23733;53.254;10.430;2023-04-06T03:19:22;2.50;99.90
37896;DHT22;23733;53.254;10.430;2023-04-06T03:21:48;2.50;99.90
37896;DHT22;23733;53.254;10.430;2023-04-06T03:24:14;2.50;99.90
37896;DHT22;23733;53.254;10.430;2023-04-06T03:26:40;2.50;99.90
37896;DHT22;23733;53.254;10.430;2023-04-06T03:29:06;2.50;99.90
37896;DHT22;23733;53.254;10.430;2023-04-06T03:31:32;2.40;99.90
37896;DHT22;23733;53.254;10.430;2023-04-06T03:33:58;2.50;99.90
37896;DHT22;23733;53.254;10.430;2023-04-06T03:36:25;2.50;99.90
37896;DHT22;23733;53.254;10.430;2023-04-06T03:38:51;2.40;99.90
37896;DHT22;23733;53.254;10.430;2023-04-06T03:41:19;2.40;99.90
37896;DHT22;23733;53.254;10.430;2023-04-06T03:43:45;2.30;99.90
37896;DHT22;23733;53.254;10.430;2023-04-06T03:46:11;2.30;99.90
37896;DHT22;23733;53.254;10.430;2023-04-06T03:48:37;2.40;99.90
37896;DHT22;23733;53.254;10.430;2023-04-06T03:51:03;2.30;99.90
37896;DHT22;23733;53.254;10.430;2023-04-06T03:53:30;2.30;99.90
37896;DHT22;23733;53.254;10.430;2023-04-06T03:55:56;2.40;99.90
37896;DHT22;23733;53.254;10.430;2023-04-06T03:58:22;2.30;99.90
37896;DHT22;23733;53.254;10.430;2023-04-06T04:00:48;2.30;99.90
37896;DHT22;23733;53.254;10.430;2023-04-06T04:03:14;2.30;99.90
37896;DHT22;23733;53.254;10.430;2023-04-06T04:05:40;2.30;99.90
37896;DHT22;23733;53.254;10.430;2023-04-06T04:08:06;2.20;99.90
37896;DHT22;23733;53.254;10.430;2023-04-06T04:10:32;2.20;99.90
37896;DHT22;23733;53.254;10.430;2023-04-06T04:12:58;2.20;99.90
37896;DHT22;23733;53.254;10.430;2023-04-06T04:15:24;2.10;99.90
37896;DHT22;23733;53.254;10.430;2023-04-06T04:17:50;2.10;99.90
37896;DHT22;23733;53.254;10.430;2023-04-06T04:20:16;2.10;99.90
37896;DHT22;23733;53.254;10.430;2023-04-06T04:22:42;2.20;99.90
37896;DHT22;23733;53.254;10.430;2023-04-06T04:25:09;2.10;99.90
37896;DHT22;23733;53.254;10.430;2023-04-06T04:27:35;2.10;99.90
37896;DHT22;23733;53.254;10.430;2023-04-06T04:30:01;2.10;99.90
37896;DHT22;23733;53.254;10.430;2023-04-06T04:32:27;2.10;99.90
37896;DHT22;23733;53.254;10.430;2023-04-06T04:34:53;2.10;99.90
37896;DHT22;23733;53.254;10.430;2023-04-06T04:37:19;2.00;99.90
37896;DHT22;23733;53.254;10.430;2023-04-06T04:39:46;2.00;99.90
37896;DHT22;23733;53.254;10.430;2023-04-06T04:42:12;2.00;99.90
37896;DHT22;23733;53.254;10.430;2023-04-06T04:44:38;2.00;99.90
37896;DHT22;23733;53.254;10.430;2023-04-06T04:47:04;2.00;99.90
37896;DHT22;23733;53.254;10.430;2023-04-06T04:49:30;2.00;99.90
37896;DHT22;23733;53.254;10.430;2023-04-06T04:51:56;1.90;99.90
37896;DHT22;23733;53.254;10.430;2023-04-06T04:54:22;1.90;99.90
37896;DHT22;23733;53.254;10.430;2023-04-06T04:56:48;1.90;99.90
37896;DHT22;23733;53.254;10.430;2023-04-06T04:59:16;2.00;99.90
37896;DHT22;23733;53.254;10.430;2023-04-06T05:01:42;1.90;99.90
37896;DHT22;23733;53.254;10.430;2023-04-06T05:04:08;1.90;99.90
37896;DHT22;23733;53.254;10.430;2023-04-06T05:06:34;1.80;99.90
37896;DHT22;23733;53.254;10.430;2023-04-06T05:09:01;1.80;99.90
37896;DHT22;23733;53.254;10.430;2023-04-06T05:11:27;1.80;99.90
37896;DHT22;23733;53.254;10.430;2023-04-06T05:13:53;1.70;99.90
37896;DHT22;23733;53.254;10.430;2023-04-06T05:16:19;1.70;99.90
37896;DHT22;23733;53.254;10.430;2023-04-06T05:18:47;1.60;99.90
37896;DHT22;23733;53.254;10.430;2023-04-06T05:21:13;1.60;99.90
37896;DHT22;23733;53.254;10.430;2023-04-06T05:23:39;1.70;99.90
37896;DHT22;23733;53.254;10.430;2023-04-06T05:26:05;1.70;99.90
37896;DHT22;23733;53.254;10.430;2023-04-06T05:28:31;1.70;99.90
37896;DHT22;23733;53.254;10.430;2023-04-06T05:30:57;1.80;99.90
37896;DHT22;23733;53.254;10.430;2023-04-06T05:33:24;1.80;99.90
37896;DHT22;23733;53.254;10.430;2023-04-06T05:35:50;1.80;99.90
37896;DHT22;23733;53.254;10.430;2023-04-06T05:38:16;1.90;99.90
37896;DHT22;23733;53.254;10.430;2023-04-06T05:40:42;2.00;99.90
37896;DHT22;23733;53.254;10.430;2023-04-06T05:43:08;2.00;99.90
37896;DHT22;23733;53.254;10.430;2023-04-06T05:45:34;2.10;99.90
37896;DHT22;23733;53.254;10.430;2023-04-06T05:48:01;2.20;99.90
37896;DHT22;23733;53.254;10.430;2023-04-06T05:50:28;2.20;99.90
37896;DHT22;23733;53.254;10.430;2023-04-06T05:52:54;2.30;99.90
37896;DHT22;23733;53.254;10.430;2023-04-06T05:55:20;2.40;99.90
37896;DHT22;23733;53.254;10.430;2023-04-06T05:57:46;2.40;99.90
37896;DHT22;23733;53.254;10.430;2023-04-06T06:00:13;2.50;99.90
37896;DHT22;23733;53.254;10.430;2023-04-06T06:02:39;2.60;99.90
37896;DHT22;23733;53.254;10.430;2023-04-06T06:05:05;2.60;99.90
37896;DHT22;23733;53.254;10.430;2023-04-06T06:07:31;2.70;99.90
37896;DHT22;23733;53.254;10.430;2023-04-06T06:09:58;2.70;99.90
37896;DHT22;23733;53.254;10.430;2023-04-06T06:12:24;2.70;99.90
37896;DHT22;23733;53.254;10.430;2023-04-06T06:14:50;2.80;99.90
37896;DHT22;23733;53.254;10.430;2023-04-06T06:17:16;2.90;99.90
37896;DHT22;23733;53.254;10.430;2023-04-06T06:19:42;3.00;99.90
37896;DHT22;23733;53.254;10.430;2023-04-06T06:22:08;3.00;99.90
37896;DHT22;23733;53.254;10.430;2023-04-06T06:24:34;3.10;99.90
37896;DHT22;23733;53.254;10.430;2023-04-06T06:27:00;3.20;99.90
37896;DHT22;23733;53.254;10.430;2023-04-06T06:29:26;3.20;99.90
37896;DHT22;23733;53.254;10.430;2023-04-06T06:31:52;3.30;99.90
37896;DHT22;23733;53.254;10.430;2023-04-06T06:34:18;3.30;99.90
37896;DHT22;23733;53.254;10.430;2023-04-06T06:36:44;3.40;99.90
37896;DHT22;23733;53.254;10.430;2023-04-06T06:39:10;3.40;99.90
37896;DHT22;23733;53.254;10.430;2023-04-06T06:41:36;3.50;99.90
37896;DHT22;23733;53.254;10.430;2023-04-06T06:44:02;3.50;99.90
37896;DHT22;23733;53.254;10.430;2023-04-06T06:46:28;3.60;99.90
37896;DHT22;23733;53.254;10.430;2023-04-06T06:48:54;3.60;99.90
37896;DHT22;23733;53.254;10.430;2023-04-06T06:51:20;3.70;99.90
37896;DHT22;23733;53.254;10.430;2023-04-06T06:53:47;3.80;99.90
37896;DHT22;23733;53.254;10.430;2023-04-06T07:10:52;3.80;99.90
37896;DHT22;23733;53.254;10.430;2023-04-06T07:13:19;4.30;99.90
37896;DHT22;23733;53.254;10.430;2023-04-06T07:15:49;4.30;99.90
37896;DHT22;23733;53.254;10.430;2023-04-06T07:18:16;4.40;99.90
37896;DHT22;23733;53.254;10.430;2023-04-06T07:20:43;4.40;99.90
37896;DHT22;23733;53.254;10.430;2023-04-06T07:23:09;4.50;99.90
37896;DHT22;23733;53.254;10.430;2023-04-06T07:25:35;4.60;99.90
37896;DHT22;23733;53.254;10.430;2023-04-06T07:28:02;4.70;99.90
37896;DHT22;23733;53.254;10.430;2023-04-06T07:30:29;4.80;99.90
37896;DHT22;23733;53.254;10.430;2023-04-06T07:32:55;4.90;99.90
37896;DHT22;23733;53.254;10.430;2023-04-06T07:35:26;5.00;99.90
37896;DHT22;23733;53.254;10.430;2023-04-06T07:37:53;5.00;99.90
37896;DHT22;23733;53.254;10.430;2023-04-06T07:40:19;5.10;99.90
37896;DHT22;23733;53.254;10.430;2023-04-06T07:42:45;5.10;99.90
37896;DHT22;23733;53.254;10.430;2023-04-06T07:45:12;5.30;99.90
37896;DHT22;23733;53.254;10.430;2023-04-06T07:47:38;5.40;99.90
37896;DHT22;23733;53.254;10.430;2023-04-06T07:50:04;5.40;99.90
37896;DHT22;23733;53.254;10.430;2023-04-06T07:52:30;5.40;99.90
37896;DHT22;23733;53.254;10.430;2023-04-06T07:54:58;5.60;99.90
37896;DHT22;23733;53.254;10.430;2023-04-06T07:57:24;5.70;99.90
37896;DHT22;23733;53.254;10.430;2023-04-06T07:59:50;5.70;99.90
37896;DHT22;23733;53.254;10.430;2023-04-06T08:02:16;5.90;99.90
37896;DHT22;23733;53.254;10.430;2023-04-06T08:04:43;5.90;99.90
37896;DHT22;23733;53.254;10.430;2023-04-06T08:07:09;6.00;99.90
37896;DHT22;23733;53.254;10.430;2023-04-06T08:09:35;6.10;99.90
37896;DHT22;23733;53.254;10.430;2023-04-06T08:12:01;6.20;99.90
37896;DHT22;23733;53.254;10.430;2023-04-06T08:14:27;6.20;99.90
37896;DHT22;23733;53.254;10.430;2023-04-06T08:16:53;6.30;99.90
37896;DHT22;23733;53.254;10.430;2023-04-06T08:19:19;6.40;99.90
37896;DHT22;23733;53.254;10.430;2023-04-06T08:21:46;6.50;99.90
37896;DHT22;23733;53.254;10.430;2023-04-06T08:24:13;6.50;99.90
37896;DHT22;23733;53.254;10.430;2023-04-06T08:26:39;6.70;99.90
37896;DHT22;23733;53.254;10.430;2023-04-06T08:29:05;6.80;99.90
37896;DHT22;23733;53.254;10.430;2023-04-06T08:31:34;6.90;99.90
37896;DHT22;23733;53.254;10.430;2023-04-06T08:34:00;7.00;99.90
37896;DHT22;23733;53.254;10.430;2023-04-06T08:36:26;7.10;99.90
37896;DHT22;23733;53.254;10.430;2023-04-06T08:38:52;7.10;99.90
37896;DHT22;23733;53.254;10.430;2023-04-06T08:41:19;7.20;99.90
37896;DHT22;23733;53.254;10.430;2023-04-06T08:43:48;7.40;99.90
37896;DHT22;23733;53.254;10.430;2023-04-06T08:46:14;7.50;99.90
37896;DHT22;23733;53.254;10.430;2023-04-06T08:48:42;7.60;99.90
37896;DHT22;23733;53.254;10.430;2023-04-06T08:51:09;7.70;99.90
37896;DHT22;23733;53.254;10.430;2023-04-06T08:53:36;7.80;99.90
37896;DHT22;23733;53.254;10.430;2023-04-06T08:56:03;7.80;99.90
37896;DHT22;23733;53.254;10.430;2023-04-06T08:58:39;7.80;99.90
37896;DHT22;23733;53.254;10.430;2023-04-06T09:01:08;8.00;99.90
37896;DHT22;23733;53.254;10.430;2023-04-06T09:03:38;8.10;99.90
37896;DHT22;23733;53.254;10.430;2023-04-06T09:06:08;8.30;99.90
37896;DHT22;23733;53.254;10.430;2023-04-06T09:08:35;8.30;99.90
37896;DHT22;23733;53.254;10.430;2023-04-06T09:11:02;8.30;99.90
37896;DHT22;23733;53.254;10.430;2023-04-06T09:13:28;8.40;99.90
37896;DHT22;23733;53.254;10.430;2023-04-06T09:18:30;8.60;99.90
37896;DHT22;23733;53.254;10.430;2023-04-06T09:21:01;8.60;99.90
37896;DHT22;23733;53.254;10.430;2023-04-06T09:23:27;8.70;99.90
37896;DHT22;23733;53.254;10.430;2023-04-06T09:28:42;8.80;99.90
37896;DHT22;23733;53.254;10.430;2023-04-06T09:31:08;8.90;99.90
37896;DHT22;23733;53.254;10.430;2023-04-06T09:33:41;9.00;99.90
37896;DHT22;23733;53.254;10.430;2023-04-06T09:36:07;9.00;99.90
37896;DHT22;23733;53.254;10.430;2023-04-06T09:39:01;9.10;99.90
37896;DHT22;23733;53.254;10.430;2023-04-06T09:41:30;9.20;99.90
37896;DHT22;23733;53.254;10.430;2023-04-06T09:44:06;9.20;99.90
37896;DHT22;23733;53.254;10.430;2023-04-06T09:46:35;9.30;99.90
37896;DHT22;23733;53.254;10.430;2023-04-06T09:49:05;9.40;99.90
37896;DHT22;23733;53.254;10.430;2023-04-06T09:51:40;9.50;99.90
37896;DHT22;23733;53.254;10.430;2023-04-06T09:54:08;9.50;99.90
37896;DHT22;23733;53.254;10.430;2023-04-06T09:56:47;9.50;99.90
37896;DHT22;23733;53.254;10.430;2023-04-06T09:59:22;9.60;99.90
37896;DHT22;23733;53.254;10.430;2023-04-06T10:01:51;9.70;99.90
37896;DHT22;23733;53.254;10.430;2023-04-06T10:04:59;9.80;99.90
37896;DHT22;23733;53.254;10.430;2023-04-06T10:07:23;9.80;99.90
37896;DHT22;23733;53.254;10.430;2023-04-06T10:09:49;9.90;99.90
37896;DHT22;23733;53.254;10.430;2023-04-06T10:12:16;10.00;99.90
37896;DHT22;23733;53.254;10.430;2023-04-06T10:14:43;10.10;99.90
37896;DHT22;23733;53.254;10.430;2023-04-06T10:17:09;10.10;99.90
37896;DHT22;23733;53.254;10.430;2023-04-06T10:19:44;10.20;99.90
37896;DHT22;23733;53.254;10.430;2023-04-06T10:22:22;10.30;99.90
37896;DHT22;23733;53.254;10.430;2023-04-06T10:24:50;10.40;99.90
37896;DHT22;23733;53.254;10.430;2023-04-06T10:27:16;10.50;99.90
37896;DHT22;23733;53.254;10.430;2023-04-06T10:29:52;10.50;99.90
37896;DHT22;23733;53.254;10.430;2023-04-06T10:32:18;10.50;99.90
37896;DHT22;23733;53.254;10.430;2023-04-06T10:34:44;10.50;99.90
37896;DHT22;23733;53.254;10.430;2023-04-06T10:37:14;10.50;99.90
37896;DHT22;23733;53.254;10.430;2023-04-06T10:39:47;10.50;99.90
37896;DHT22;23733;53.254;10.430;2023-04-06T10:42:24;10.50;99.90
37896;DHT22;23733;53.254;10.430;2023-04-06T10:44:50;10.60;99.90
37896;DHT22;23733;53.254;10.430;2023-04-06T10:47:17;10.70;99.90
37896;DHT22;23733;53.254;10.430;2023-04-06T10:49:44;10.70;99.90
37896;DHT22;23733;53.254;10.430;2023-04-06T10:52:10;10.70;99.90
37896;DHT22;23733;53.254;10.430;2023-04-06T10:54:41;10.90;99.90
37896;DHT22;23733;53.254;10.430;2023-04-06T10:57:09;11.00;99.90
37896;DHT22;23733;53.254;10.430;2023-04-06T10:59:35;11.00;99.90
37896;DHT22;23733;53.254;10.430;2023-04-06T11:02:01;11.10;99.90
37896;DHT22;23733;53.254;10.430;2023-04-06T11:04:27;11.10;99.90
37896;DHT22;23733;53.254;10.430;2023-04-06T11:06:53;11.00;99.90
37896;DHT22;23733;53.254;10.430;2023-04-06T11:09:29;10.90;99.90
37896;DHT22;23733;53.254;10.430;2023-04-06T11:11:55;11.00;99.90
37896;DHT22;23733;53.254;10.430;2023-04-06T11:14:22;11.10;99.90
37896;DHT22;23733;53.254;10.430;2023-04-06T11:16:50;11.10;99.90
37896;DHT22;23733;53.254;10.430;2023-04-06T11:19:16;11.10;99.90
37896;DHT22;23733;53.254;10.430;2023-04-06T11:21:44;11.30;99.90
37896;DHT22;23733;53.254;10.430;2023-04-06T11:24:23;11.30;99.90
37896;DHT22;23733;53.254;10.430;2023-04-06T11:29:22;11.40;99.90
37896;DHT22;23733;53.254;10.430;2023-04-06T11:31:51;11.50;99.90
37896;DHT22;23733;53.254;10.430;2023-04-06T11:34:24;11.50;99.90
37896;DHT22;23733;53.254;10.430;2023-04-06T11:36:59;11.60;99.90
37896;DHT22;23733;53.254;10.430;2023-04-06T11:39:26;11.50;99.90
37896;DHT22;23733;53.254;10.430;2023-04-06T11:42:00;11.60;99.90
37896;DHT22;23733;53.254;10.430;2023-04-06T11:44:43;11.70;99.90
37896;DHT22;23733;53.254;10.430;2023-04-06T11:47:12;11.80;99.90
37896;DHT22;23733;53.254;10.430;2023-04-06T11:49:43;11.80;99.90
37896;DHT22;23733;53.254;10.430;2023-04-06T11:52:19;11.90;99.90
37896;DHT22;23733;53.254;10.430;2023-04-06T11:54:46;12.00;99.90
37896;DHT22;23733;53.254;10.430;2023-04-06T11:57:13;12.00;99.90
37896;DHT22;23733;53.254;10.430;2023-04-06T11:59:39;12.00;99.90
37896;DHT22;23733;53.254;10.430;2023-04-06T12:02:05;11.90;99.90
37896;DHT22;23733;53.254;10.430;2023-04-06T12:04:31;11.90;99.90
37896;DHT22;23733;53.254;10.430;2023-04-06T12:06:58;11.90;99.90
37896;DHT22;23733;53.254;10.430;2023-04-06T12:09:24;12.00;99.90
37896;DHT22;23733;53.254;10.430;2023-04-06T12:11:50;12.00;99.90
37896;DHT22;23733;53.254;10.430;2023-04-06T12:14:16;12.10;99.90
37896;DHT22;23733;53.254;10.430;2023-04-06T12:16:42;12.10;99.90
37896;DHT22;23733;53.254;10.430;2023-04-06T12:19:09;12.10;99.90
37896;DHT22;23733;53.254;10.430;2023-04-06T12:21:36;12.10;99.90
37896;DHT22;23733;53.254;10.430;2023-04-06T12:24:04;12.20;99.90
37896;DHT22;23733;53.254;10.430;2023-04-06T12:26:31;12.20;99.90
37896;DHT22;23733;53.254;10.430;2023-04-06T12:28:58;12.30;99.90
37896;DHT22;23733;53.254;10.430;2023-04-06T12:31:30;12.20;99.90
37896;DHT22;23733;53.254;10.430;2023-04-06T12:33:56;12.30;99.90
37896;DHT22;23733;53.254;10.430;2023-04-06T12:36:22;12.30;99.90
37896;DHT22;23733;53.254;10.430;2023-04-06T12:38:48;12.40;99.90
37896;DHT22;23733;53.254;10.430;2023-04-06T12:41:15;12.40;99.90
37896;DHT22;23733;53.254;10.430;2023-04-06T12:43:42;12.40;99.90
37896;DHT22;23733;53.254;10.430;2023-04-06T12:46:08;12.50;99.90
37896;DHT22;23733;53.254;10.430;2023-04-06T12:48:34;12.40;99.90
37896;DHT22;23733;53.254;10.430;2023-04-06T12:51:02;12.30;99.90
37896;DHT22;23733;53.254;10.430;2023-04-06T12:53:29;12.20;99.90
37896;DHT22;23733;53.254;10.430;2023-04-06T12:55:56;12.30;99.90
37896;DHT22;23733;53.254;10.430;2023-04-06T12:58:22;12.20;99.90
37896;DHT22;23733;53.254;10.430;2023-04-06T13:00:49;12.10;99.90
37896;DHT22;23733;53.254;10.430;2023-04-06T13:03:17;12.20;99.90
37896;DHT22;23733;53.254;10.430;2023-04-06T13:05:44;12.20;99.90
37896;DHT22;23733;53.254;10.430;2023-04-06T13:08:11;12.10;99.90
37896;DHT22;23733;53.254;10.430;2023-04-06T13:10:37;12.20;99.90
37896;DHT22;23733;53.254;10.430;2023-04-06T13:13:04;12.10;99.90
37896;DHT22;23733;53.254;10.430;2023-04-06T13:15:31;12.20;99.90
37896;DHT22;23733;53.254;10.430;2023-04-06T13:17:57;12.20;99.90
37896;DHT22;23733;53.254;10.430;2023-04-06T13:20:23;12.20;99.90
37896;DHT22;23733;53.254;10.430;2023-04-06T13:22:50;12.20;99.90
37896;DHT22;23733;53.254;10.430;2023-04-06T13:25:16;12.20;99.90
37896;DHT22;23733;53.254;10.430;2023-04-06T13:27:42;12.10;99.90
37896;DHT22;23733;53.254;10.430;2023-04-06T13:30:12;12.00;99.90
37896;DHT22;23733;53.254;10.430;2023-04-06T13:32:38;12.00;99.90
37896;DHT22;23733;53.254;10.430;2023-04-06T13:35:05;12.10;99.90
37896;DHT22;23733;53.254;10.430;2023-04-06T13:37:32;12.10;99.90
37896;DHT22;23733;53.254;10.430;2023-04-06T13:39:59;12.10;99.90
37896;DHT22;23733;53.254;10.430;2023-04-06T13:42:25;12.10;99.90
37896;DHT22;23733;53.254;10.430;2023-04-06T13:44:51;12.10;99.90
37896;DHT22;23733;53.254;10.430;2023-04-06T13:47:17;12.20;99.90
37896;DHT22;23733;53.254;10.430;2023-04-06T13:49:43;12.10;99.90
37896;DHT22;23733;53.254;10.430;2023-04-06T13:52:09;12.00;99.90
37896;DHT22;23733;53.254;10.430;2023-04-06T13:54:36;12.00;99.90
37896;DHT22;23733;53.254;10.430;2023-04-06T13:57:02;11.90;99.90
37896;DHT22;23733;53.254;10.430;2023-04-06T13:59:37;11.90;99.90
37896;DHT22;23733;53.254;10.430;2023-04-06T14:02:05;12.00;99.90
37896;DHT22;23733;53.254;10.430;2023-04-06T14:04:32;12.00;99.90
37896;DHT22;23733;53.254;10.430;2023-04-06T14:06:58;12.00;99.90
37896;DHT22;23733;53.254;10.430;2023-04-06T14:09:24;11.90;99.90
37896;DHT22;23733;53.254;10.430;2023-04-06T14:11:51;12.00;99.90
37896;DHT22;23733;53.254;10.430;2023-04-06T14:14:17;12.00;99.90
37896;DHT22;23733;53.254;10.430;2023-04-06T14:16:44;12.10;99.90
37896;DHT22;23733;53.254;10.430;2023-04-06T14:19:11;12.10;99.90
37896;DHT22;23733;53.254;10.430;2023-04-06T14:21:38;12.10;99.90
37896;DHT22;23733;53.254;10.430;2023-04-06T14:24:07;12.00;99.90
37896;DHT22;23733;53.254;10.430;2023-04-06T14:26:35;12.00;99.90
37896;DHT22;23733;53.254;10.430;2023-04-06T14:29:01;12.00;99.90
37896;DHT22;23733;53.254;10.430;2023-04-06T14:31:27;12.00;99.90
37896;DHT22;23733;53.254;10.430;2023-04-06T14:33:53;11.90;99.90
37896;DHT22;23733;53.254;10.430;2023-04-06T14:36:19;12.00;99.90
37896;DHT22;23733;53.254;10.430;2023-04-06T14:38:45;11.90;99.90
37896;DHT22;23733;53.254;10.430;2023-04-06T14:41:22;12.00;99.90
37896;DHT22;23733;53.254;10.430;2023-04-06T14:43:48;12.10;99.90
37896;DHT22;23733;53.254;10.430;2023-04-06T14:46:14;12.00;99.90
37896;DHT22;23733;53.254;10.430;2023-04-06T14:48:44;12.10;99.90
37896;DHT22;23733;53.254;10.430;2023-04-06T14:51:11;12.10;99.90
37896;DHT22;23733;53.254;10.430;2023-04-06T14:53:37;12.00;99.90
37896;DHT22;23733;53.254;10.430;2023-04-06T14:56:03;12.00;99.90
37896;DHT22;23733;53.254;10.430;2023-04-06T14:58:30;12.00;99.90
37896;DHT22;23733;53.254;10.430;2023-04-06T15:00:57;11.90;99.90
37896;DHT22;23733;53.254;10.430;2023-04-06T15:03:25;11.90;99.90
37896;DHT22;23733;53.254;10.430;2023-04-06T15:05:52;11.90;99.90
37896;DHT22;23733;53.254;10.430;2023-04-06T15:08:18;11.90;99.90
37896;DHT22;23733;53.254;10.430;2023-04-06T15:10:48;11.90;99.90
37896;DHT22;23733;53.254;10.430;2023-04-06T15:13:14;11.90;99.90
37896;DHT22;23733;53.254;10.430;2023-04-06T15:15:43;11.90;99.90
37896;DHT22;23733;53.254;10.430;2023-04-06T15:18:10;12.00;99.90
37896;DHT22;23733;53.254;10.430;2023-04-06T15:20:37;11.90;99.90
37896;DHT22;23733;53.254;10.430;2023-04-06T15:23:03;12.00;99.90
37896;DHT22;23733;53.254;10.430;2023-04-06T15:25:29;12.00;99.90
37896;DHT22;23733;53.254;10.430;2023-04-06T15:27:56;12.00;99.90
37896;DHT22;23733;53.254;10.430;2023-04-06T15:30:22;11.90;99.90
37896;DHT22;23733;53.254;10.430;2023-04-06T15:32:53;11.90;99.90
37896;DHT22;23733;53.254;10.430;2023-04-06T15:35:20;11.90;99.90
37896;DHT22;23733;53.254;10.430;2023-04-06T15:37:46;11.90;99.90
37896;DHT22;23733;53.254;10.430;2023-04-06T15:40:12;11.90;99.90
37896;DHT22;23733;53.254;10.430;2023-04-06T15:42:41;11.90;99.90
37896;DHT22;23733;53.254;10.430;2023-04-06T15:45:09;11.90;99.90
37896;DHT22;23733;53.254;10.430;2023-04-06T15:47:44;11.90;99.90
37896;DHT22;23733;53.254;10.430;2023-04-06T15:50:11;11.80;99.90